Aviation Digital Data Service (ADDS)

Output produced by METARs form (0605 UTC 25 June 2018)
found at http://www.aviationweather.gov/adds/metars/
 
OOSA 250550Z 19013KT 8000 FEW014 BKN020 29/26 Q1007 NOSIG
TAF OOSA 250540Z 2506/2612 19012KT 8000 FEW014 BKN020 
     TEMPO 2520/2605 7000 -DZ SCT012 OVC020
       
OOMS 250550Z 28010KT 9000 NSC 40/22 Q0999 NOSIG
TAF OOMS 250500Z 2506/2612 35014KT 8000 NSC 
     BECMG 2515/2517 24008KT 
     BECMG 2604/2606 35012KT